sensor_id;sensor_type;location;lat;lon;timestamp;P1;durP1;ratioP1;P2;durP2;ratioP2
3967;SDS011;9221;42.646;23.380;2024-02-23T00:01:04;27.53;;;9.37;;
3967;SDS011;9221;42.646;23.380;2024-02-23T00:03:30;24.97;;;9.20;;
3967;SDS011;9221;42.646;23.380;2024-02-23T00:05:55;22.50;;;8.77;;
3967;SDS011;9221;42.646;23.380;2024-02-23T00:08:21;25.13;;;9.83;;
3967;SDS011;9221;42.646;23.380;2024-02-23T00:10:47;23.30;;;8.90;;
3967;SDS011;9221;42.646;23.380;2024-02-23T00:13:12;28.13;;;9.70;;
3967;SDS011;9221;42.646;23.380;2024-02-23T00:15:38;28.13;;;10.47;;
3967;SDS011;9221;42.646;23.380;2024-02-23T00:18:10;24.70;;;9.10;;
3967;SDS011;9221;42.646;23.380;2024-02-23T00:20:38;33.87;;;10.23;;
3967;SDS011;9221;42.646;23.380;2024-02-23T00:23:03;21.90;;;8.00;;
3967;SDS011;9221;42.646;23.380;2024-02-23T00:25:29;25.90;;;9.50;;
3967;SDS011;9221;42.646;23.380;2024-02-23T00:27:54;24.00;;;9.07;;
3967;SDS011;9221;42.646;23.380;2024-02-23T00:30:20;27.60;;;9.90;;
3967;SDS011;9221;42.646;23.380;2024-02-23T00:32:45;21.60;;;9.00;;
3967;SDS011;9221;42.646;23.380;2024-02-23T00:35:11;26.83;;;9.17;;
3967;SDS011;9221;42.646;23.380;2024-02-23T00:37:36;26.93;;;8.50;;
3967;SDS011;9221;42.646;23.380;2024-02-23T00:40:02;31.83;;;10.40;;
3967;SDS011;9221;42.646;23.380;2024-02-23T00:42:29;28.43;;;10.43;;
3967;SDS011;9221;42.646;23.380;2024-02-23T00:44:58;21.27;;;9.00;;
3967;SDS011;9221;42.646;23.380;2024-02-23T00:47:23;24.87;;;8.77;;
3967;SDS011;9221;42.646;23.380;2024-02-23T00:49:49;25.07;;;8.37;;
3967;SDS011;9221;42.646;23.380;2024-02-23T00:52:14;19.73;;;8.50;;
3967;SDS011;9221;42.646;23.380;2024-02-23T00:54:41;33.73;;;9.90;;
3967;SDS011;9221;42.646;23.380;2024-02-23T00:57:06;22.03;;;8.67;;
3967;SDS011;9221;42.646;23.380;2024-02-23T00:59:32;23.93;;;8.77;;
3967;SDS011;9221;42.646;23.380;2024-02-23T01:01:57;21.60;;;8.90;;
3967;SDS011;9221;42.646;23.380;2024-02-23T01:04:23;20.40;;;7.80;;
3967;SDS011;9221;42.646;23.380;2024-02-23T01:06:49;19.70;;;8.23;;
3967;SDS011;9221;42.646;23.380;2024-02-23T01:09:14;22.10;;;8.17;;
3967;SDS011;9221;42.646;23.380;2024-02-23T01:11:42;20.40;;;8.17;;
3967;SDS011;9221;42.646;23.380;2024-02-23T01:14:07;23.07;;;8.07;;
3967;SDS011;9221;42.646;23.380;2024-02-23T01:16:33;29.77;;;9.33;;
3967;SDS011;9221;42.646;23.380;2024-02-23T01:18:58;17.73;;;7.77;;
3967;SDS011;9221;42.646;23.380;2024-02-23T01:21:24;27.90;;;8.10;;
3967;SDS011;9221;42.646;23.380;2024-02-23T01:23:49;19.77;;;7.47;;
3967;SDS011;9221;42.646;23.380;2024-02-23T01:26:15;21.73;;;7.83;;
3967;SDS011;9221;42.646;23.380;2024-02-23T01:28:40;24.83;;;7.83;;
3967;SDS011;9221;42.646;23.380;2024-02-23T01:31:09;18.00;;;7.13;;
3967;SDS011;9221;42.646;23.380;2024-02-23T01:33:36;21.40;;;8.10;;
3967;SDS011;9221;42.646;23.380;2024-02-23T01:36:03;22.17;;;7.47;;
3967;SDS011;9221;42.646;23.380;2024-02-23T01:38:30;23.97;;;8.10;;
3967;SDS011;9221;42.646;23.380;2024-02-23T01:40:57;15.37;;;6.57;;
3967;SDS011;9221;42.646;23.380;2024-02-23T01:43:23;25.63;;;7.80;;
3967;SDS011;9221;42.646;23.380;2024-02-23T01:45:49;17.63;;;7.00;;
3967;SDS011;9221;42.646;23.380;2024-02-23T01:48:14;30.60;;;7.23;;
3967;SDS011;9221;42.646;23.380;2024-02-23T01:50:42;21.00;;;7.10;;
3967;SDS011;9221;42.646;23.380;2024-02-23T01:53:08;21.87;;;7.30;;
3967;SDS011;9221;42.646;23.380;2024-02-23T01:55:35;17.00;;;6.77;;
3967;SDS011;9221;42.646;23.380;2024-02-23T01:58:02;15.70;;;6.60;;
3967;SDS011;9221;42.646;23.380;2024-02-23T02:00:29;21.20;;;7.67;;
3967;SDS011;9221;42.646;23.380;2024-02-23T02:02:56;17.20;;;5.93;;
3967;SDS011;9221;42.646;23.380;2024-02-23T02:05:22;21.70;;;6.73;;
3967;SDS011;9221;42.646;23.380;2024-02-23T02:07:49;20.63;;;6.77;;
3967;SDS011;9221;42.646;23.380;2024-02-23T02:10:18;19.40;;;6.40;;
3967;SDS011;9221;42.646;23.380;2024-02-23T02:12:45;18.13;;;7.20;;
3967;SDS011;9221;42.646;23.380;2024-02-23T02:15:11;29.63;;;8.10;;
3967;SDS011;9221;42.646;23.380;2024-02-23T02:17:36;17.00;;;6.23;;
3967;SDS011;9221;42.646;23.380;2024-02-23T02:20:02;13.37;;;5.87;;
3967;SDS011;9221;42.646;23.380;2024-02-23T02:22:32;16.33;;;6.70;;
3967;SDS011;9221;42.646;23.380;2024-02-23T02:24:58;18.90;;;6.70;;
3967;SDS011;9221;42.646;23.380;2024-02-23T02:27:24;22.30;;;7.83;;
3967;SDS011;9221;42.646;23.380;2024-02-23T02:29:50;18.10;;;7.67;;
3967;SDS011;9221;42.646;23.380;2024-02-23T02:32:16;14.57;;;6.33;;
3967;SDS011;9221;42.646;23.380;2024-02-23T02:34:41;16.67;;;6.10;;
3967;SDS011;9221;42.646;23.380;2024-02-23T02:37:07;19.70;;;7.23;;
3967;SDS011;9221;42.646;23.380;2024-02-23T02:39:33;20.27;;;7.67;;
3967;SDS011;9221;42.646;23.380;2024-02-23T02:41:58;19.00;;;7.37;;
3967;SDS011;9221;42.646;23.380;2024-02-23T02:44:24;21.40;;;7.60;;
3967;SDS011;9221;42.646;23.380;2024-02-23T02:46:51;16.20;;;6.37;;
3967;SDS011;9221;42.646;23.380;2024-02-23T02:49:17;16.13;;;7.13;;
3967;SDS011;9221;42.646;23.380;2024-02-23T02:51:42;24.90;;;6.90;;
3967;SDS011;9221;42.646;23.380;2024-02-23T02:54:08;23.60;;;7.97;;
3967;SDS011;9221;42.646;23.380;2024-02-23T02:56:34;19.27;;;6.07;;
3967;SDS011;9221;42.646;23.380;2024-02-23T02:58:59;16.20;;;6.37;;
3967;SDS011;9221;42.646;23.380;2024-02-23T03:01:24;24.10;;;7.80;;
3967;SDS011;9221;42.646;23.380;2024-02-23T03:03:51;13.90;;;6.60;;
3967;SDS011;9221;42.646;23.380;2024-02-23T03:06:16;27.10;;;7.77;;
3967;SDS011;9221;42.646;23.380;2024-02-23T03:08:42;19.60;;;6.77;;
3967;SDS011;9221;42.646;23.380;2024-02-23T03:11:07;15.30;;;6.40;;
3967;SDS011;9221;42.646;23.380;2024-02-23T03:13:33;19.40;;;6.70;;
3967;SDS011;9221;42.646;23.380;2024-02-23T03:15:58;24.93;;;6.43;;
3967;SDS011;9221;42.646;23.380;2024-02-23T03:18:25;17.73;;;6.80;;
3967;SDS011;9221;42.646;23.380;2024-02-23T03:20:52;18.47;;;6.67;;
3967;SDS011;9221;42.646;23.380;2024-02-23T03:23:18;19.07;;;7.17;;
3967;SDS011;9221;42.646;23.380;2024-02-23T03:25:43;18.20;;;5.63;;
3967;SDS011;9221;42.646;23.380;2024-02-23T03:28:09;20.17;;;6.93;;
3967;SDS011;9221;42.646;23.380;2024-02-23T03:30:34;20.90;;;7.17;;
3967;SDS011;9221;42.646;23.380;2024-02-23T03:33:00;18.43;;;6.67;;
3967;SDS011;9221;42.646;23.380;2024-02-23T03:35:25;18.90;;;7.53;;
3967;SDS011;9221;42.646;23.380;2024-02-23T03:37:51;24.40;;;7.20;;
3967;SDS011;9221;42.646;23.380;2024-02-23T03:40:16;16.33;;;6.43;;
3967;SDS011;9221;42.646;23.380;2024-02-23T03:42:44;22.37;;;7.37;;
3967;SDS011;9221;42.646;23.380;2024-02-23T03:45:09;22.00;;;6.60;;
3967;SDS011;9221;42.646;23.380;2024-02-23T03:47:35;15.00;;;6.90;;
3967;SDS011;9221;42.646;23.380;2024-02-23T03:50:00;17.33;;;6.97;;
3967;SDS011;9221;42.646;23.380;2024-02-23T03:52:26;15.73;;;6.80;;
3967;SDS011;9221;42.646;23.380;2024-02-23T03:54:51;23.20;;;6.57;;
3967;SDS011;9221;42.646;23.380;2024-02-23T03:57:19;17.70;;;7.03;;
3967;SDS011;9221;42.646;23.380;2024-02-23T03:59:51;16.90;;;6.80;;
3967;SDS011;9221;42.646;23.380;2024-02-23T04:02:17;22.10;;;7.40;;
3967;SDS011;9221;42.646;23.380;2024-02-23T04:04:43;19.03;;;7.60;;
3967;SDS011;9221;42.646;23.380;2024-02-23T04:07:08;22.20;;;6.23;;
3967;SDS011;9221;42.646;23.380;2024-02-23T04:09:34;19.87;;;7.40;;
3967;SDS011;9221;42.646;23.380;2024-02-23T04:11:59;18.90;;;6.87;;
3967;SDS011;9221;42.646;23.380;2024-02-23T04:14:25;17.70;;;6.43;;
3967;SDS011;9221;42.646;23.380;2024-02-23T04:16:51;16.87;;;6.57;;
3967;SDS011;9221;42.646;23.380;2024-02-23T04:19:16;17.63;;;6.43;;
3967;SDS011;9221;42.646;23.380;2024-02-23T04:21:41;18.13;;;5.90;;
3967;SDS011;9221;42.646;23.380;2024-02-23T04:24:07;28.63;;;7.33;;
3967;SDS011;9221;42.646;23.380;2024-02-23T04:26:33;16.93;;;6.40;;
3967;SDS011;9221;42.646;23.380;2024-02-23T04:28:59;17.63;;;6.70;;
3967;SDS011;9221;42.646;23.380;2024-02-23T04:31:24;16.40;;;6.40;;
3967;SDS011;9221;42.646;23.380;2024-02-23T04:33:50;17.30;;;6.47;;
3967;SDS011;9221;42.646;23.380;2024-02-23T04:36:18;16.07;;;6.30;;
3967;SDS011;9221;42.646;23.380;2024-02-23T04:38:46;20.10;;;7.50;;
3967;SDS011;9221;42.646;23.380;2024-02-23T04:41:11;25.27;;;6.80;;
3967;SDS011;9221;42.646;23.380;2024-02-23T04:43:37;16.30;;;6.53;;
3967;SDS011;9221;42.646;23.380;2024-02-23T04:46:02;20.83;;;7.33;;
3967;SDS011;9221;42.646;23.380;2024-02-23T04:48:28;17.30;;;6.53;;
3967;SDS011;9221;42.646;23.380;2024-02-23T04:50:56;14.10;;;6.00;;
3967;SDS011;9221;42.646;23.380;2024-02-23T04:53:21;19.30;;;7.37;;
3967;SDS011;9221;42.646;23.380;2024-02-23T04:55:47;23.93;;;8.10;;
3967;SDS011;9221;42.646;23.380;2024-02-23T04:58:12;18.77;;;6.27;;
3967;SDS011;9221;42.646;23.380;2024-02-23T05:00:38;17.90;;;6.77;;
3967;SDS011;9221;42.646;23.380;2024-02-23T05:03:05;16.93;;;7.57;;
3967;SDS011;9221;42.646;23.380;2024-02-23T05:05:31;20.53;;;7.40;;
3967;SDS011;9221;42.646;23.380;2024-02-23T05:07:57;18.60;;;7.57;;
3967;SDS011;9221;42.646;23.380;2024-02-23T05:10:23;16.20;;;6.53;;
3967;SDS011;9221;42.646;23.380;2024-02-23T05:12:49;15.97;;;6.10;;
3967;SDS011;9221;42.646;23.380;2024-02-23T05:15:15;17.60;;;7.10;;
3967;SDS011;9221;42.646;23.380;2024-02-23T05:17:41;20.50;;;6.60;;
3967;SDS011;9221;42.646;23.380;2024-02-23T05:20:07;27.80;;;8.20;;
3967;SDS011;9221;42.646;23.380;2024-02-23T05:22:35;17.60;;;6.90;;
3967;SDS011;9221;42.646;23.380;2024-02-23T05:25:01;17.30;;;7.00;;
3967;SDS011;9221;42.646;23.380;2024-02-23T05:27:28;20.80;;;7.97;;
3967;SDS011;9221;42.646;23.380;2024-02-23T05:29:54;18.13;;;6.73;;
3967;SDS011;9221;42.646;23.380;2024-02-23T05:32:19;24.73;;;8.17;;
3967;SDS011;9221;42.646;23.380;2024-02-23T05:34:44;19.33;;;7.83;;
3967;SDS011;9221;42.646;23.380;2024-02-23T05:37:10;21.90;;;7.00;;
3967;SDS011;9221;42.646;23.380;2024-02-23T05:39:35;22.37;;;8.40;;
3967;SDS011;9221;42.646;23.380;2024-02-23T05:42:03;20.90;;;7.30;;
3967;SDS011;9221;42.646;23.380;2024-02-23T05:44:29;22.77;;;7.97;;
3967;SDS011;9221;42.646;23.380;2024-02-23T05:46:54;27.87;;;8.73;;
3967;SDS011;9221;42.646;23.380;2024-02-23T05:49:20;16.20;;;6.93;;
3967;SDS011;9221;42.646;23.380;2024-02-23T05:51:45;29.23;;;8.70;;
3967;SDS011;9221;42.646;23.380;2024-02-23T05:54:11;25.30;;;6.60;;
3967;SDS011;9221;42.646;23.380;2024-02-23T05:56:36;31.23;;;8.77;;
3967;SDS011;9221;42.646;23.380;2024-02-23T05:59:02;23.60;;;7.57;;
3967;SDS011;9221;42.646;23.380;2024-02-23T06:01:28;36.67;;;8.17;;
3967;SDS011;9221;42.646;23.380;2024-02-23T06:03:53;25.67;;;8.67;;
3967;SDS011;9221;42.646;23.380;2024-02-23T06:06:20;26.30;;;8.53;;
3967;SDS011;9221;42.646;23.380;2024-02-23T06:08:45;28.90;;;9.27;;
3967;SDS011;9221;42.646;23.380;2024-02-23T06:11:11;28.10;;;9.03;;
3967;SDS011;9221;42.646;23.380;2024-02-23T06:13:37;32.73;;;9.27;;
3967;SDS011;9221;42.646;23.380;2024-02-23T06:16:03;32.97;;;9.40;;
3967;SDS011;9221;42.646;23.380;2024-02-23T06:18:29;30.00;;;9.37;;
3967;SDS011;9221;42.646;23.380;2024-02-23T06:20:55;34.10;;;8.47;;
3967;SDS011;9221;42.646;23.380;2024-02-23T06:23:20;23.00;;;9.00;;
3967;SDS011;9221;42.646;23.380;2024-02-23T06:25:47;18.80;;;7.90;;
3967;SDS011;9221;42.646;23.380;2024-02-23T06:28:12;29.27;;;10.30;;
3967;SDS011;9221;42.646;23.380;2024-02-23T06:30:38;36.47;;;10.57;;
3967;SDS011;9221;42.646;23.380;2024-02-23T06:33:03;23.97;;;9.00;;
3967;SDS011;9221;42.646;23.380;2024-02-23T06:35:29;22.63;;;8.43;;
3967;SDS011;9221;42.646;23.380;2024-02-23T06:37:56;38.47;;;8.80;;
3967;SDS011;9221;42.646;23.380;2024-02-23T06:40:21;25.60;;;9.20;;
3967;SDS011;9221;42.646;23.380;2024-02-23T06:42:47;40.97;;;10.77;;
3967;SDS011;9221;42.646;23.380;2024-02-23T06:45:12;29.80;;;10.20;;
3967;SDS011;9221;42.646;23.380;2024-02-23T06:47:38;31.33;;;10.70;;
3967;SDS011;9221;42.646;23.380;2024-02-23T06:50:05;24.70;;;10.17;;
3967;SDS011;9221;42.646;23.380;2024-02-23T06:52:31;33.03;;;11.30;;
3967;SDS011;9221;42.646;23.380;2024-02-23T06:54:58;32.07;;;10.17;;
3967;SDS011;9221;42.646;23.380;2024-02-23T06:57:23;25.93;;;10.33;;
3967;SDS011;9221;42.646;23.380;2024-02-23T06:59:51;27.40;;;8.90;;
3967;SDS011;9221;42.646;23.380;2024-02-23T07:02:16;25.90;;;8.70;;
3967;SDS011;9221;42.646;23.380;2024-02-23T07:04:42;27.87;;;8.47;;
3967;SDS011;9221;42.646;23.380;2024-02-23T07:07:07;26.63;;;8.47;;
3967;SDS011;9221;42.646;23.380;2024-02-23T07:09:33;29.83;;;10.63;;
3967;SDS011;9221;42.646;23.380;2024-02-23T07:11:59;23.13;;;9.30;;
3967;SDS011;9221;42.646;23.380;2024-02-23T07:14:25;27.63;;;9.17;;
3967;SDS011;9221;42.646;23.380;2024-02-23T07:16:51;28.23;;;9.10;;
3967;SDS011;9221;42.646;23.380;2024-02-23T07:19:17;27.63;;;9.23;;
3967;SDS011;9221;42.646;23.380;2024-02-23T07:21:45;37.60;;;11.23;;
3967;SDS011;9221;42.646;23.380;2024-02-23T07:24:10;40.83;;;11.63;;
3967;SDS011;9221;42.646;23.380;2024-02-23T07:26:36;29.30;;;10.23;;
3967;SDS011;9221;42.646;23.380;2024-02-23T07:29:01;25.90;;;9.13;;
3967;SDS011;9221;42.646;23.380;2024-02-23T07:31:27;30.83;;;10.07;;
3967;SDS011;9221;42.646;23.380;2024-02-23T07:33:52;29.83;;;10.30;;
3967;SDS011;9221;42.646;23.380;2024-02-23T07:36:18;26.30;;;10.60;;
3967;SDS011;9221;42.646;23.380;2024-02-23T07:38:43;34.17;;;9.87;;
3967;SDS011;9221;42.646;23.380;2024-02-23T07:41:10;29.10;;;10.90;;
3967;SDS011;9221;42.646;23.380;2024-02-23T07:43:36;26.30;;;10.43;;
3967;SDS011;9221;42.646;23.380;2024-02-23T07:46:01;28.17;;;10.60;;
3967;SDS011;9221;42.646;23.380;2024-02-23T07:48:27;24.13;;;10.03;;
3967;SDS011;9221;42.646;23.380;2024-02-23T07:50:53;24.93;;;9.37;;
3967;SDS011;9221;42.646;23.380;2024-02-23T07:53:18;22.53;;;8.70;;
3967;SDS011;9221;42.646;23.380;2024-02-23T07:55:44;26.70;;;9.73;;
3967;SDS011;9221;42.646;23.380;2024-02-23T07:58:09;23.97;;;9.30;;
3967;SDS011;9221;42.646;23.380;2024-02-23T08:00:35;33.03;;;10.23;;
3967;SDS011;9221;42.646;23.380;2024-02-23T08:03:03;35.23;;;10.73;;
3967;SDS011;9221;42.646;23.380;2024-02-23T08:05:29;29.40;;;9.50;;
3967;SDS011;9221;42.646;23.380;2024-02-23T08:07:54;22.30;;;9.57;;
3967;SDS011;9221;42.646;23.380;2024-02-23T08:10:20;23.53;;;8.10;;
3967;SDS011;9221;42.646;23.380;2024-02-23T08:12:46;26.80;;;9.20;;
3967;SDS011;9221;42.646;23.380;2024-02-23T08:15:12;27.00;;;7.70;;
3967;SDS011;9221;42.646;23.380;2024-02-23T08:17:38;25.50;;;8.00;;
3967;SDS011;9221;42.646;23.380;2024-02-23T08:20:03;23.90;;;8.33;;
3967;SDS011;9221;42.646;23.380;2024-02-23T08:22:30;19.40;;;7.23;;
3967;SDS011;9221;42.646;23.380;2024-02-23T08:24:56;17.57;;;7.30;;
3967;SDS011;9221;42.646;23.380;2024-02-23T08:27:21;22.80;;;7.83;;
3967;SDS011;9221;42.646;23.380;2024-02-23T08:29:47;18.40;;;6.80;;
3967;SDS011;9221;42.646;23.380;2024-02-23T08:32:12;17.33;;;7.47;;
3967;SDS011;9221;42.646;23.380;2024-02-23T08:34:38;23.43;;;7.97;;
3967;SDS011;9221;42.646;23.380;2024-02-23T08:37:04;18.93;;;7.10;;
3967;SDS011;9221;42.646;23.380;2024-02-23T08:39:29;16.63;;;6.70;;
3967;SDS011;9221;42.646;23.380;2024-02-23T08:41:55;19.60;;;7.40;;
3967;SDS011;9221;42.646;23.380;2024-02-23T08:44:21;23.37;;;7.47;;
3967;SDS011;9221;42.646;23.380;2024-02-23T08:46:47;27.83;;;8.43;;
3967;SDS011;9221;42.646;23.380;2024-02-23T08:49:13;23.50;;;7.73;;
3967;SDS011;9221;42.646;23.380;2024-02-23T08:51:39;15.77;;;6.53;;
3967;SDS011;9221;42.646;23.380;2024-02-23T08:54:05;22.83;;;7.80;;
3967;SDS011;9221;42.646;23.380;2024-02-23T08:56:31;16.47;;;7.00;;
3967;SDS011;9221;42.646;23.380;2024-02-23T08:59:01;24.80;;;8.20;;
3967;SDS011;9221;42.646;23.380;2024-02-23T09:01:27;23.10;;;6.83;;
3967;SDS011;9221;42.646;23.380;2024-02-23T09:03:52;19.57;;;6.57;;
3967;SDS011;9221;42.646;23.380;2024-02-23T09:06:18;13.93;;;6.10;;
3967;SDS011;9221;42.646;23.380;2024-02-23T09:08:44;27.57;;;7.50;;
3967;SDS011;9221;42.646;23.380;2024-02-23T09:11:10;19.77;;;6.67;;
3967;SDS011;9221;42.646;23.380;2024-02-23T09:13:38;22.60;;;6.67;;
3967;SDS011;9221;42.646;23.380;2024-02-23T09:16:04;18.40;;;6.30;;
3967;SDS011;9221;42.646;23.380;2024-02-23T09:18:29;20.57;;;6.23;;
3967;SDS011;9221;42.646;23.380;2024-02-23T09:20:55;32.40;;;7.97;;
3967;SDS011;9221;42.646;23.380;2024-02-23T09:23:20;15.30;;;6.10;;
3967;SDS011;9221;42.646;23.380;2024-02-23T09:25:46;27.20;;;7.70;;
3967;SDS011;9221;42.646;23.380;2024-02-23T09:28:11;18.70;;;5.97;;
3967;SDS011;9221;42.646;23.380;2024-02-23T09:30:37;15.03;;;5.87;;
3967;SDS011;9221;42.646;23.380;2024-02-23T09:33:03;15.80;;;6.13;;
3967;SDS011;9221;42.646;23.380;2024-02-23T09:35:29;14.90;;;5.50;;
3967;SDS011;9221;42.646;23.380;2024-02-23T09:37:54;13.77;;;5.47;;
3967;SDS011;9221;42.646;23.380;2024-02-23T09:40:20;16.27;;;6.00;;
3967;SDS011;9221;42.646;23.380;2024-02-23T09:42:51;24.57;;;5.57;;
3967;SDS011;9221;42.646;23.380;2024-02-23T09:45:26;15.47;;;6.07;;
3967;SDS011;9221;42.646;23.380;2024-02-23T09:47:56;17.80;;;6.00;;
3967;SDS011;9221;42.646;23.380;2024-02-23T09:50:22;12.60;;;5.00;;
3967;SDS011;9221;42.646;23.380;2024-02-23T09:52:49;16.10;;;5.73;;
3967;SDS011;9221;42.646;23.380;2024-02-23T09:55:16;10.57;;;4.50;;
3967;SDS011;9221;42.646;23.380;2024-02-23T09:57:47;10.00;;;3.90;;
3967;SDS011;9221;42.646;23.380;2024-02-23T10:00:17;22.40;;;5.37;;
3967;SDS011;9221;42.646;23.380;2024-02-23T10:02:43;22.33;;;5.57;;
3967;SDS011;9221;42.646;23.380;2024-02-23T10:05:10;12.37;;;4.63;;
3967;SDS011;9221;42.646;23.380;2024-02-23T10:07:37;11.73;;;4.07;;
3967;SDS011;9221;42.646;23.380;2024-02-23T10:10:06;10.90;;;4.33;;
3967;SDS011;9221;42.646;23.380;2024-02-23T10:12:33;7.90;;;3.00;;
3967;SDS011;9221;42.646;23.380;2024-02-23T10:14:58;10.27;;;3.77;;
3967;SDS011;9221;42.646;23.380;2024-02-23T10:17:24;11.83;;;3.70;;
3967;SDS011;9221;42.646;23.380;2024-02-23T10:19:49;11.80;;;3.43;;
3967;SDS011;9221;42.646;23.380;2024-02-23T10:22:15;10.50;;;3.37;;
3967;SDS011;9221;42.646;23.380;2024-02-23T10:24:42;10.03;;;3.70;;
3967;SDS011;9221;42.646;23.380;2024-02-23T10:27:08;14.27;;;5.63;;
3967;SDS011;9221;42.646;23.380;2024-02-23T10:29:33;10.83;;;3.50;;
3967;SDS011;9221;42.646;23.380;2024-02-23T10:31:59;8.90;;;2.87;;
3967;SDS011;9221;42.646;23.380;2024-02-23T10:34:26;12.30;;;3.47;;
3967;SDS011;9221;42.646;23.380;2024-02-23T10:36:53;11.10;;;3.30;;
3967;SDS011;9221;42.646;23.380;2024-02-23T10:39:20;7.57;;;2.50;;
3967;SDS011;9221;42.646;23.380;2024-02-23T10:41:58;18.23;;;3.40;;
3967;SDS011;9221;42.646;23.380;2024-02-23T10:44:28;19.30;;;4.03;;
3967;SDS011;9221;42.646;23.380;2024-02-23T10:46:54;21.80;;;3.37;;
3967;SDS011;9221;42.646;23.380;2024-02-23T10:49:21;11.67;;;3.10;;
3967;SDS011;9221;42.646;23.380;2024-02-23T10:51:51;11.33;;;3.50;;
3967;SDS011;9221;42.646;23.380;2024-02-23T10:54:17;10.23;;;3.10;;
3967;SDS011;9221;42.646;23.380;2024-02-23T10:56:46;9.90;;;2.90;;
3967;SDS011;9221;42.646;23.380;2024-02-23T10:59:12;8.70;;;2.30;;
3967;SDS011;9221;42.646;23.380;2024-02-23T11:01:38;8.80;;;2.80;;
3967;SDS011;9221;42.646;23.380;2024-02-23T11:04:05;7.40;;;2.50;;
3967;SDS011;9221;42.646;23.380;2024-02-23T11:06:33;8.10;;;3.00;;
3967;SDS011;9221;42.646;23.380;2024-02-23T11:09:08;9.97;;;3.10;;
3967;SDS011;9221;42.646;23.380;2024-02-23T11:11:38;6.40;;;2.77;;
3967;SDS011;9221;42.646;23.380;2024-02-23T11:14:07;7.60;;;2.30;;
3967;SDS011;9221;42.646;23.380;2024-02-23T11:16:38;5.43;;;2.13;;
3967;SDS011;9221;42.646;23.380;2024-02-23T11:19:07;5.93;;;2.27;;
3967;SDS011;9221;42.646;23.380;2024-02-23T11:21:36;7.57;;;2.90;;
3967;SDS011;9221;42.646;23.380;2024-02-23T11:24:05;5.73;;;2.33;;
3967;SDS011;9221;42.646;23.380;2024-02-23T11:26:31;7.83;;;2.37;;
3967;SDS011;9221;42.646;23.380;2024-02-23T11:29:09;7.20;;;2.47;;
3967;SDS011;9221;42.646;23.380;2024-02-23T11:31:35;7.00;;;2.50;;
3967;SDS011;9221;42.646;23.380;2024-02-23T11:34:01;7.43;;;2.40;;
3967;SDS011;9221;42.646;23.380;2024-02-23T11:36:30;8.10;;;2.50;;
3967;SDS011;9221;42.646;23.380;2024-02-23T11:38:58;6.87;;;2.33;;
3967;SDS011;9221;42.646;23.380;2024-02-23T11:41:25;8.60;;;2.80;;
3967;SDS011;9221;42.646;23.380;2024-02-23T11:43:55;19.00;;;3.60;;
3967;SDS011;9221;42.646;23.380;2024-02-23T11:46:22;10.60;;;2.80;;
3967;SDS011;9221;42.646;23.380;2024-02-23T11:48:48;9.97;;;2.73;;
3967;SDS011;9221;42.646;23.380;2024-02-23T11:51:20;6.10;;;2.40;;
3967;SDS011;9221;42.646;23.380;2024-02-23T11:53:47;7.87;;;2.70;;
3967;SDS011;9221;42.646;23.380;2024-02-23T11:56:13;12.40;;;2.57;;
3967;SDS011;9221;42.646;23.380;2024-02-23T11:58:41;5.87;;;2.30;;
3967;SDS011;9221;42.646;23.380;2024-02-23T12:01:07;6.60;;;1.80;;
3967;SDS011;9221;42.646;23.380;2024-02-23T12:03:33;6.47;;;2.37;;
3967;SDS011;9221;42.646;23.380;2024-02-23T12:06:02;5.67;;;2.00;;
3967;SDS011;9221;42.646;23.380;2024-02-23T12:08:29;2.17;;;1.27;;
3967;SDS011;9221;42.646;23.380;2024-02-23T12:11:05;4.43;;;1.70;;
3967;SDS011;9221;42.646;23.380;2024-02-23T12:13:33;6.87;;;2.30;;
3967;SDS011;9221;42.646;23.380;2024-02-23T12:15:59;6.17;;;2.20;;
3967;SDS011;9221;42.646;23.380;2024-02-23T12:18:26;5.37;;;2.20;;
3967;SDS011;9221;42.646;23.380;2024-02-23T12:20:52;4.87;;;2.17;;
3967;SDS011;9221;42.646;23.380;2024-02-23T12:23:18;5.23;;;1.90;;
3967;SDS011;9221;42.646;23.380;2024-02-23T12:25:53;5.20;;;1.90;;
3967;SDS011;9221;42.646;23.380;2024-02-23T12:28:22;7.83;;;2.10;;
3967;SDS011;9221;42.646;23.380;2024-02-23T12:31:01;5.80;;;1.70;;
3967;SDS011;9221;42.646;23.380;2024-02-23T12:33:28;5.43;;;1.80;;
3967;SDS011;9221;42.646;23.380;2024-02-23T12:35:57;5.67;;;1.90;;
3967;SDS011;9221;42.646;23.380;2024-02-23T12:38:23;5.33;;;2.00;;
3967;SDS011;9221;42.646;23.380;2024-02-23T12:40:50;4.90;;;1.90;;
3967;SDS011;9221;42.646;23.380;2024-02-23T12:43:16;5.80;;;1.80;;
3967;SDS011;9221;42.646;23.380;2024-02-23T12:45:43;4.33;;;1.47;;
3967;SDS011;9221;42.646;23.380;2024-02-23T12:48:10;6.33;;;1.90;;
3967;SDS011;9221;42.646;23.380;2024-02-23T12:50:36;5.13;;;1.70;;
3967;SDS011;9221;42.646;23.380;2024-02-23T12:53:02;7.30;;;2.00;;
3967;SDS011;9221;42.646;23.380;2024-02-23T12:55:28;6.20;;;2.17;;
3967;SDS011;9221;42.646;23.380;2024-02-23T12:57:54;7.90;;;2.20;;
3967;SDS011;9221;42.646;23.380;2024-02-23T13:00:19;5.13;;;2.00;;
3967;SDS011;9221;42.646;23.380;2024-02-23T13:02:45;5.67;;;2.10;;
3967;SDS011;9221;42.646;23.380;2024-02-23T13:05:10;4.37;;;1.80;;
3967;SDS011;9221;42.646;23.380;2024-02-23T13:07:36;4.43;;;1.67;;
3967;SDS011;9221;42.646;23.380;2024-02-23T13:10:03;5.80;;;2.27;;
3967;SDS011;9221;42.646;23.380;2024-02-23T13:12:30;5.10;;;2.00;;
3967;SDS011;9221;42.646;23.380;2024-02-23T13:14:55;5.80;;;1.83;;
3967;SDS011;9221;42.646;23.380;2024-02-23T13:17:21;6.87;;;2.23;;
3967;SDS011;9221;42.646;23.380;2024-02-23T13:19:46;14.37;;;2.30;;
3967;SDS011;9221;42.646;23.380;2024-02-23T13:22:12;4.97;;;1.90;;
3967;SDS011;9221;42.646;23.380;2024-02-23T13:24:37;8.70;;;2.50;;
3967;SDS011;9221;42.646;23.380;2024-02-23T13:27:05;6.20;;;1.90;;
3967;SDS011;9221;42.646;23.380;2024-02-23T13:29:30;4.53;;;1.73;;
3967;SDS011;9221;42.646;23.380;2024-02-23T13:31:56;11.60;;;2.37;;
3967;SDS011;9221;42.646;23.380;2024-02-23T13:34:21;6.37;;;2.00;;
3967;SDS011;9221;42.646;23.380;2024-02-23T13:36:47;5.97;;;2.17;;
3967;SDS011;9221;42.646;23.380;2024-02-23T13:39:14;5.07;;;2.00;;
3967;SDS011;9221;42.646;23.380;2024-02-23T13:41:40;5.03;;;2.20;;
3967;SDS011;9221;42.646;23.380;2024-02-23T13:44:06;9.17;;;2.40;;
3967;SDS011;9221;42.646;23.380;2024-02-23T13:46:31;6.20;;;2.07;;
3967;SDS011;9221;42.646;23.380;2024-02-23T13:49:03;8.70;;;2.40;;
3967;SDS011;9221;42.646;23.380;2024-02-23T13:51:31;5.33;;;2.23;;
3967;SDS011;9221;42.646;23.380;2024-02-23T13:53:57;5.63;;;2.13;;
3967;SDS011;9221;42.646;23.380;2024-02-23T13:56:22;7.60;;;2.70;;
3967;SDS011;9221;42.646;23.380;2024-02-23T13:58:48;10.90;;;2.40;;
3967;SDS011;9221;42.646;23.380;2024-02-23T14:01:14;11.23;;;3.37;;
3967;SDS011;9221;42.646;23.380;2024-02-23T14:03:40;9.37;;;2.90;;
3967;SDS011;9221;42.646;23.380;2024-02-23T14:06:05;8.10;;;2.70;;
3967;SDS011;9221;42.646;23.380;2024-02-23T14:08:31;5.40;;;1.80;;
3967;SDS011;9221;42.646;23.380;2024-02-23T14:10:59;4.73;;;1.90;;
3967;SDS011;9221;42.646;23.380;2024-02-23T14:13:25;8.13;;;2.60;;
3967;SDS011;9221;42.646;23.380;2024-02-23T14:15:51;5.30;;;2.40;;
3967;SDS011;9221;42.646;23.380;2024-02-23T14:18:16;9.00;;;2.57;;
3967;SDS011;9221;42.646;23.380;2024-02-23T14:20:43;11.83;;;2.50;;
3967;SDS011;9221;42.646;23.380;2024-02-23T14:23:08;12.00;;;2.67;;
3967;SDS011;9221;42.646;23.380;2024-02-23T14:25:34;15.03;;;2.47;;
3967;SDS011;9221;42.646;23.380;2024-02-23T14:27:59;6.70;;;2.37;;
3967;SDS011;9221;42.646;23.380;2024-02-23T14:30:25;7.20;;;2.67;;
3967;SDS011;9221;42.646;23.380;2024-02-23T14:32:50;6.47;;;2.30;;
3967;SDS011;9221;42.646;23.380;2024-02-23T14:35:16;7.30;;;2.20;;
3967;SDS011;9221;42.646;23.380;2024-02-23T14:37:41;6.10;;;2.20;;
3967;SDS011;9221;42.646;23.380;2024-02-23T14:40:07;7.33;;;2.00;;
3967;SDS011;9221;42.646;23.380;2024-02-23T14:42:33;7.77;;;2.43;;
3967;SDS011;9221;42.646;23.380;2024-02-23T14:44:59;5.23;;;2.77;;